Casnovia, Michigan
Current Conditions -  °F | °C
As of 10:34 PM on Monday 22 Dec 2014 (Local Time) from KFFX Reporting Station
Unknown Precip Unknown Precip  
Wind Chill: 25°   Ceiling: 3000
Heat Index: 34°   Visibility: 4mi
Dew Point: 33°   Wind: 12mph
Humidity: 96%   Direction: 100°E
Pressure: 29.78"   Gusts: 17mph
Location:  43.23°N, 85.79°W
Report Text: KFFX 230334Z AUTO 10010G15KT 4SM UP SCT009 BKN030 OVC040 01/01 A2978 RMK AO2 T00100005
Loading
Personal Weather Stations






























Interactive Weather Map New forecast layout! Learn more

10-Day Weather Forecast

Advertisements
Track Severe Weather on mobile